createdAt,value
2019-05-25T00:04:51.142Z,12.90
2019-05-25T00:09:56.060Z,12.90
2019-05-25T00:15:02.021Z,12.90
2019-05-25T00:20:07.884Z,13.00
2019-05-25T00:25:13.212Z,12.90
2019-05-25T00:30:18.583Z,13.00
2019-05-25T00:35:23.775Z,13.00
2019-05-25T00:40:28.872Z,13.10
2019-05-25T00:45:34.245Z,13.10
2019-05-25T00:50:39.162Z,12.90
2019-05-25T00:55:44.176Z,12.90
2019-05-25T01:00:49.092Z,13.00
2019-05-25T01:05:54.312Z,13.10
2019-05-25T01:11:00.019Z,13.00
2019-05-25T01:16:05.132Z,12.90
2019-05-25T01:21:10.947Z,12.80
2019-05-25T01:26:16.305Z,12.80
2019-05-25T01:31:21.314Z,12.70
2019-05-25T01:36:26.320Z,12.70
2019-05-25T01:41:31.336Z,12.80
2019-05-25T01:46:36.451Z,12.90
2019-05-25T01:51:42.077Z,12.70
2019-05-25T01:56:47.170Z,12.60
2019-05-25T02:01:53.709Z,12.50
2019-05-25T02:06:59.079Z,12.50
2019-05-25T02:12:06.699Z,12.30
2019-05-25T02:17:12.250Z,12.30
2019-05-25T02:22:17.459Z,12.30
2019-05-25T02:27:22.908Z,12.30
2019-05-25T02:32:27.999Z,12.30
2019-05-25T02:47:42.123Z,12.00
2019-05-25T02:52:47.055Z,12.00
2019-05-25T02:57:52.862Z,12.00
2019-05-25T03:02:58.231Z,11.90
2019-05-25T03:08:04.685Z,12.00
2019-05-25T03:13:12.302Z,12.00
2019-05-25T03:18:19.409Z,12.00
2019-05-25T03:23:25.112Z,11.90
2019-05-25T03:28:30.932Z,11.80
2019-05-25T03:33:36.846Z,11.80
2019-05-25T03:38:41.941Z,11.80
2019-05-25T03:43:47.300Z,11.80
2019-05-25T03:48:52.411Z,11.90
2019-05-25T03:53:57.516Z,11.90
2019-05-25T03:59:02.521Z,11.90
2019-05-25T04:04:08.069Z,11.90
2019-05-25T04:09:13.082Z,11.90
2019-05-25T04:14:18.193Z,11.90
2019-05-25T04:19:23.198Z,11.90
2019-05-25T04:24:28.198Z,11.80
2019-05-25T04:29:33.932Z,11.80
2019-05-25T04:34:50.998Z,11.90
2019-05-25T04:39:58.483Z,12.00
2019-05-25T04:45:04.797Z,12.00
2019-05-25T04:50:10.266Z,12.00
2019-05-25T04:55:19.857Z,11.90
2019-05-25T05:00:25.781Z,12.00
2019-05-25T05:05:30.780Z,12.00
2019-05-25T05:10:35.969Z,11.90
2019-05-25T05:15:43.435Z,12.00
2019-05-25T05:20:51.657Z,12.10
2019-05-25T05:25:57.321Z,12.00
2019-05-25T05:31:04.286Z,12.00
2019-05-25T05:36:15.956Z,12.20
2019-05-25T05:41:23.143Z,12.10
2019-05-25T05:46:30.312Z,12.20
2019-05-25T05:51:36.773Z,12.20
2019-05-25T05:56:42.655Z,12.40
2019-05-25T06:01:49.047Z,12.50
2019-05-25T06:06:56.666Z,12.70
2019-05-25T06:12:12.265Z,12.70
2019-05-25T06:17:17.563Z,12.80
2019-05-25T06:22:23.099Z,13.00
2019-05-25T06:27:28.645Z,13.10
2019-05-25T06:32:38.710Z,13.30
2019-05-25T06:37:44.340Z,13.50
2019-05-25T06:42:50.925Z,13.60
2019-05-25T06:47:58.406Z,13.70
2019-05-25T06:53:03.956Z,13.60
2019-05-25T06:58:09.199Z,13.30
2019-05-25T07:03:14.422Z,13.30
2019-05-25T07:08:19.618Z,13.10
2019-05-25T07:13:28.387Z,13.20
2019-05-25T07:18:35.378Z,13.30
2019-05-25T07:23:40.594Z,13.60
2019-05-25T07:28:46.329Z,13.80
2019-05-25T07:33:51.985Z,13.90
2019-05-25T07:38:57.692Z,14.10
2019-05-25T07:44:03.499Z,14.20
2019-05-25T07:49:10.239Z,14.20
2019-05-25T07:54:15.782Z,14.40
2019-05-25T07:59:20.868Z,14.60
2019-05-25T08:04:26.106Z,14.40
2019-05-25T08:09:31.488Z,14.50
2019-05-25T08:14:38.050Z,14.60
2019-05-25T08:19:43.578Z,14.60
2019-05-25T08:24:48.585Z,14.80
2019-05-25T08:29:53.684Z,14.70
2019-05-25T08:34:58.963Z,14.70
2019-05-25T08:40:04.881Z,14.90
2019-05-25T08:45:12.052Z,14.60
2019-05-25T08:50:18.051Z,14.70
2019-05-25T08:55:24.593Z,14.90
2019-05-25T09:00:30.052Z,15.20
2019-05-25T09:05:34.971Z,15.20
2019-05-25T09:10:41.152Z,15.80
2019-05-25T09:15:48.899Z,16.20
2019-05-25T09:20:54.345Z,16.20
2019-05-25T09:25:59.723Z,16.60
2019-05-25T09:31:04.937Z,16.70
2019-05-25T09:36:10.024Z,16.70
2019-05-25T09:41:15.476Z,16.20
2019-05-25T09:46:20.661Z,16.50
2019-05-25T09:51:26.313Z,16.70
2019-05-25T09:56:33.219Z,17.00
2019-05-25T10:01:38.409Z,16.90
2019-05-25T10:06:43.248Z,17.20
2019-05-25T10:11:48.287Z,16.80
2019-05-25T10:16:53.484Z,16.70
2019-05-25T10:21:59.674Z,16.60
2019-05-25T10:27:05.067Z,16.60
2019-05-25T10:32:09.852Z,16.40
2019-05-25T10:37:15.131Z,16.80
2019-05-25T10:42:19.911Z,16.60
2019-05-25T10:47:26.346Z,16.90
2019-05-25T10:52:31.492Z,17.40
2019-05-25T10:57:36.522Z,17.70
2019-05-25T11:02:41.706Z,17.70
2019-05-25T11:07:46.589Z,17.50
2019-05-25T11:12:51.516Z,17.60
2019-05-25T11:17:56.663Z,17.70
2019-05-25T11:23:01.529Z,18.00
2019-05-25T11:28:08.388Z,18.30
2019-05-25T11:33:15.101Z,18.40
2019-05-25T11:38:19.856Z,18.20
2019-05-25T11:43:32.570Z,18.20
2019-05-25T11:53:42.866Z,18.50
2019-05-25T11:58:47.995Z,18.50
2019-05-25T12:03:53.275Z,18.50
2019-05-25T12:08:58.194Z,18.70
2019-05-25T12:14:03.172Z,18.80
2019-05-25T12:19:08.739Z,18.50
2019-05-25T12:24:13.694Z,18.70
2019-05-25T12:29:18.605Z,18.70
2019-05-25T12:34:23.572Z,18.50
2019-05-25T12:39:28.469Z,18.40
2019-05-25T12:44:34.463Z,18.40
2019-05-25T12:49:50.476Z,18.10
2019-05-25T12:54:47.680Z,18.10
2019-05-25T12:59:52.585Z,17.90
2019-05-25T13:04:57.822Z,17.60
2019-05-25T13:10:03.503Z,17.30
2019-05-25T13:15:09.346Z,17.40
2019-05-25T13:20:14.610Z,17.30
2019-05-25T13:25:19.515Z,17.30
2019-05-25T13:30:24.378Z,17.40
2019-05-25T13:35:30.495Z,17.50
2019-05-25T13:40:35.616Z,17.60
2019-05-25T13:45:40.410Z,17.60
2019-05-25T13:50:45.481Z,17.60
2019-05-25T13:55:51.029Z,17.70
2019-05-25T14:00:55.935Z,17.60
2019-05-25T14:06:00.821Z,17.80
2019-05-25T14:11:06.827Z,17.80
2019-05-25T14:16:12.007Z,17.80
2019-05-25T14:21:16.805Z,18.10
2019-05-25T14:26:21.919Z,18.20
2019-05-25T14:31:44.338Z,18.30
2019-05-25T14:36:36.655Z,18.40
2019-05-25T14:41:41.880Z,18.40
2019-05-25T14:46:46.663Z,18.30
2019-05-25T14:51:51.940Z,18.20
2019-05-25T14:57:05.587Z,18.10
2019-05-25T15:02:14.188Z,18.20
2019-05-25T15:07:19.455Z,18.10
2019-05-25T15:12:24.772Z,18.10
2019-05-25T15:17:29.656Z,18.20
2019-05-25T15:22:34.857Z,18.30
2019-05-25T15:27:39.731Z,18.30
2019-05-25T15:32:45.389Z,18.40
2019-05-25T15:37:50.365Z,18.40
2019-05-25T15:42:55.998Z,18.50
2019-05-25T15:48:00.923Z,18.70
2019-05-25T15:53:05.940Z,18.70
2019-05-25T15:58:13.203Z,18.70
2019-05-25T16:03:19.336Z,18.60
2019-05-25T16:08:25.002Z,18.30
2019-05-25T16:13:30.561Z,18.60
2019-05-25T16:18:35.754Z,18.80
2019-05-25T16:23:40.662Z,18.70
2019-05-25T16:28:45.651Z,18.70
2019-05-25T16:33:53.153Z,18.60
2019-05-25T16:38:58.194Z,18.40
2019-05-25T16:44:04.786Z,18.10
2019-05-25T16:49:10.976Z,17.90
2019-05-25T16:54:15.942Z,18.00
2019-05-25T16:59:21.992Z,18.10
2019-05-25T17:04:28.987Z,18.00
2019-05-25T17:09:34.259Z,17.90
2019-05-25T17:14:39.575Z,18.00
2019-05-25T17:19:46.054Z,17.90
2019-05-25T17:24:50.968Z,18.30
2019-05-25T17:29:56.278Z,18.40
2019-05-25T17:35:03.611Z,18.50
2019-05-25T17:40:09.065Z,18.30
2019-05-25T17:45:14.313Z,18.20
2019-05-25T17:50:19.523Z,18.10
2019-05-25T17:55:24.494Z,18.10
2019-05-25T18:00:54.697Z,18.00
2019-05-25T18:05:59.548Z,17.90
2019-05-25T18:11:04.987Z,17.90
2019-05-25T18:16:10.424Z,17.60
2019-05-25T18:21:15.992Z,17.60
2019-05-25T18:26:20.883Z,17.40
2019-05-25T18:31:27.661Z,17.30
2019-05-25T18:36:32.642Z,17.30
2019-05-25T18:41:38.067Z,17.30
2019-05-25T18:46:46.069Z,17.30
2019-05-25T18:51:50.952Z,17.20
2019-05-25T18:56:55.836Z,17.10
2019-05-25T19:02:01.149Z,17.00
2019-05-25T19:07:06.299Z,16.90
2019-05-25T19:12:11.300Z,16.90
2019-05-25T19:17:16.398Z,16.80
2019-05-25T19:22:22.636Z,16.80
2019-05-25T19:27:27.590Z,16.60
2019-05-25T19:32:32.784Z,16.60
2019-05-25T19:37:41.869Z,16.50
2019-05-25T19:42:44.650Z,16.40
2019-05-25T19:47:50.378Z,16.30
2019-05-25T19:52:55.692Z,16.30
2019-05-25T19:58:00.824Z,16.30
2019-05-25T20:03:05.799Z,16.20
2019-05-25T20:08:10.887Z,16.10
2019-05-25T20:13:15.898Z,16.00
2019-05-25T20:18:21.091Z,16.00
2019-05-25T20:23:27.268Z,15.80
2019-05-25T20:28:32.219Z,15.60
2019-05-25T20:33:37.303Z,15.50
2019-05-25T20:38:43.274Z,15.50
2019-05-25T20:43:48.309Z,15.40
2019-05-25T20:48:53.182Z,15.30
2019-05-25T20:53:59.797Z,15.20
2019-05-25T20:59:04.886Z,15.20
2019-05-25T21:04:09.720Z,14.90
2019-05-25T21:09:15.362Z,15.00
2019-05-25T21:14:20.271Z,15.00
2019-05-25T21:19:25.480Z,14.80
2019-05-25T21:24:30.398Z,14.70
2019-05-25T21:29:35.379Z,14.80
2019-05-25T21:34:40.806Z,14.70
2019-05-25T21:39:46.231Z,14.50
2019-05-25T21:44:51.457Z,14.70
2019-05-25T21:49:56.366Z,14.80
2019-05-25T21:55:02.228Z,14.80
2019-05-25T22:00:08.661Z,14.70
2019-05-25T22:05:14.540Z,14.80
2019-05-25T22:10:19.469Z,15.00
2019-05-25T22:15:25.496Z,14.90
2019-05-25T22:20:30.944Z,14.60
2019-05-25T22:25:36.329Z,14.60
2019-05-25T22:30:41.253Z,14.50
2019-05-25T22:35:47.832Z,14.30
2019-05-25T22:40:52.880Z,14.50
2019-05-25T22:45:57.769Z,14.60
2019-05-25T22:51:02.985Z,14.70
2019-05-25T22:56:09.790Z,14.60
2019-05-25T23:01:14.766Z,14.80
2019-05-25T23:06:19.711Z,14.80
2019-05-25T23:11:24.869Z,14.80
2019-05-25T23:16:29.656Z,14.80
2019-05-25T23:21:34.440Z,14.90
2019-05-25T23:26:39.927Z,14.90
2019-05-25T23:31:45.079Z,14.90
2019-05-25T23:36:49.914Z,14.90
2019-05-25T23:41:54.812Z,14.80
2019-05-25T23:46:59.847Z,14.80
2019-05-25T23:52:04.795Z,14.70
2019-05-25T23:57:09.666Z,14.70
